McKean County Weather on FaceBook
Current Metar reports for airports in our Region

Nearby METAR Reports

Metar reports(Meteorological Terminal Aviation Routine) are mainly used by pilots for information on what is happening at their destination during their pre-flight weather briefings and by meteorologists to assist in short term forecasts. A raw Metar is one of the most universal ways to communicate weather information in the world and are usually transmitted by airports, but some come from permanent sanctioned weather observatories.

Listed below are Metars from airports within 100 miles of our station here in Smethport Pa. The first one of course is the Bradford Regional Airport, then the Olean NY airport and so on. Each airport has it's own table to display it's data and at the bottom of the table is 'Raw' Metar for each airport. Most pilots and weather forecasters can look at the raw data and tell you what is up, but we use a script that handles all of the details for us.

KBFD - Bradford, Pennsylvania, USA
Distance from station: NW 7mi, 11km
Updated: Sun, 23-Jan-2022 9:53am EST
Light snow, Overcast
Light snow, Overcast
 Wind from WSW
Wind: WSW 9 mph , 15 km/h
Temperature: 21°F , -6°C
Wind Chill: 11°F , -12°C
Dew Point: 12°F , -11°C
Humidity: 68%
Barometer: 29.74 inHg , 1007.1 hPa
Summary: Light Snow
Clouds: Overcast
Visibility: 1 1/4 miles , 2 km
Cloud details: Few Clouds 1400 ft
Mostly Cloudy 2100 ft
Overcast 3100 ft
2022/01/23 14:53 KBFD 231453Z AUTO 25008KT 1 1/4SM -SN FEW014 BKN021 OVC031 M06/M11 A2974 RMK AO2 SLP097 P0000 60000 T10611111 58011
KOLE - Olean, New York, USA
Distance from station: NNE 37mi, 59km
Updated: Sun, 23-Jan-2022 10:35am EST
Light snow, Overcast
Light snow, Overcast
 Wind from SW
Wind: SW 8 mph , 13 km/h
Temperature: 19°F , -7°C
Wind Chill: 9°F , -13°C
Dew Point: 14°F , -10°C
Humidity: 79%
Barometer: 29.71 inHg , 1006.1 hPa
Summary: Light Snow
Clouds: Overcast
Visibility: 2 miles , 3 km
Cloud details: Mostly Cloudy 1400 ft
Mostly Cloudy 2100 ft
Overcast 3700 ft
2022/01/23 15:35 KOLE 231535Z AUTO 23007KT 210V270 2SM -SN BKN014 BKN021 OVC037 M07/M10 A2971 RMK AO2
 
KELZ - Wellsville, New York, USA
Distance from station: NE 40mi, 64km
Updated: Sun, 23-Jan-2022 10:47am EST
Haze, Overcast
Haze, Overcast
 Wind from SW
Wind: SW 8 mph , 13 km/h
Temperature: 21°F , -6°C
Wind Chill: 11°F , -12°C
Dew Point: 14°F , -10°C
Humidity: 74%
Barometer: 29.72 inHg , 1006.4 hPa
Summary: Haze
Clouds: Overcast
Visibility: 2 1/2 miles , 4 km
Cloud details: Few Clouds 1800 ft
Mostly Cloudy 3100 ft
Overcast 3800 ft
2022/01/23 15:47 KELZ 231547Z AUTO 22007KT 2 1/2SM HZ FEW018 BKN031 OVC038 M06/M10 A2972 RMK AO2 SNE40 T10611100 PNO $
KDUJ - Du Bois, Pennsylvania, USA
Distance from station: SSW 42mi, 68km
Updated: Sun, 23-Jan-2022 10:53am EST
Light snow, Overcast
Light snow, Overcast
 Wind from W
Wind: W 12 mph , 19 km/h
Temperature: 23°F , -5°C
Wind Chill: 11°F , -12°C
Dew Point: 18°F , -8°C
Humidity: 80%
Barometer: 29.77 inHg , 1008.1 hPa
Summary: Light Snow
Clouds: Overcast
Visibility: 1 1/4 miles , 2 km
Cloud details: Overcast 1600 ft
2022/01/23 15:53 KDUJ 231553Z AUTO 26010KT 1 1/4SM -SN OVC016 M05/M08 A2977 RMK AO2 SNB48 SLP105 P0000 T10501083
 
KJHW - Jamestown, New York, USA
Distance from station: NW 46mi, 75km
Updated: Sun, 23-Jan-2022 10:56am EST
Light snow, Mist, Overcast
Light snow, Mist, Overcast
 Wind from SW
Wind: SW 13 mph , 20 km/h
Temperature: 19°F , -7°C
Wind Chill: 6°F , -14°C
Dew Point: 18°F , -8°C
Humidity: 93%
Barometer: 29.74 inHg , 1007.1 hPa
Summary: Light snow, Mist
Clouds: Overcast
Visibility: 1 mile , 2 km
Cloud details: Overcast 1400 ft
2022/01/23 15:56 KJHW 231556Z AUTO 22011KT 1SM -SN BR OVC014 M07/M08 A2974 RMK AO2 CIG 008V020 SLP103 P0000 T10671083 FZRANO RVRNO
KFIG - Clearfield, Pennsylvania, USA
Distance from station: S 47mi, 75km
Updated: Sun, 23-Jan-2022 10:54am EST
Overcast
Overcast
 Wind from WSW
Wind: WSW 16 mph , 26 km/h, Gust: 23 mph , 37 km/h
Temperature: 25°F , -4°C
Wind Chill: 12°F , -11°C
Dew Point: 16°F , -9°C
Humidity: 69%
Barometer: 29.80 inHg , 1009.1 hPa
Clouds: Overcast
Visibility: 10 miles , 16 km
Cloud details: Overcast 2700 ft
2022/01/23 15:54 KFIG 231554Z AUTO 24014G20KT 10SM OVC027 M04/M09 A2980 RMK AO2 SLP112 T10391089 $
 
KDKK - Dunkirk, New York, USA
Distance from station: NW 66mi, 106km
Updated: Sun, 23-Jan-2022 10:53am EST
Snow, Freezing, Fog, Overcast
Snow, Freezing, Fog, Overcast
 Wind from N
Wind: N 8 mph , 13 km/h
Temperature: 25°F , -4°C
Wind Chill: 16°F , -9°C
Dew Point: 21°F , -6°C
Humidity: 86%
Barometer: 29.82 inHg , 1009.8 hPa
Summary: Snow, Freezing, Fog
Clouds: Overcast
Visibility: 1/2 mile , 0.8 km
Cloud details: Overcast 700 ft
2022/01/23 15:53 KDKK 231553Z AUTO 36007KT 1/2SM SN FZFG VV007 M04/M06 A2982 RMK AO2 SLP107 P0006 T10441061
KUNV - State College, Pennsylvania, USA
Distance from station: SSE 71mi, 114km
Updated: Sun, 23-Jan-2022 10:53am EST
Mostly Cloudy
Mostly Cloudy
 Wind from WSW
Wind: WSW 14 mph , 22 km/h
Temperature: 30°F , -1°C
Wind Chill: 19°F , -7°C
Dew Point: 16°F , -9°C
Humidity: 55%
Barometer: 29.83 inHg , 1010.2 hPa
Clouds: Mostly Cloudy
Visibility: 10 miles , 16 km
Cloud details: Partly Cloudy 3700 ft
Mostly Cloudy 4800 ft
2022/01/23 15:53 KUNV 231553Z 25012KT 10SM SCT037 BKN048 M01/M09 A2983
 
KFKL - Franklin, Pennsylvania, USA
Distance from station: WSW 72mi, 116km
Updated: Sun, 23-Jan-2022 10:56am EST
Light snow, Mist, Overcast
Light snow, Mist, Overcast
 Wind from SSW
Wind: SSW 8 mph , 13 km/h
Temperature: 21°F , -6°C
Wind Chill: 11°F , -12°C
Dew Point: 19°F , -7°C
Humidity: 93%
Barometer: 29.78 inHg , 1008.5 hPa
Summary: Light snow, Mist
Clouds: Overcast
Visibility: 1 mile , 2 km
Cloud details: Overcast 800 ft
2022/01/23 15:56 KFKL 231556Z AUTO 21007KT 1SM -SN BR OVC008 M06/M07 A2978 RMK AO2 SLP108 P0001 T10611072 FZRANO
KDSV - Dansville, New York, USA
Distance from station: NE 73mi, 117km
Updated: Sun, 23-Jan-2022 10:54am EST
Light snow, Overcast
Light snow, Overcast
 Wind from calm
Wind: Calm
Temperature: 27°F , -3°C
Dew Point: 19°F , -7°C
Humidity: 74%
Barometer: 29.80 inHg , 1009.1 hPa
Summary: Light Snow
Clouds: Overcast
Visibility: 1 1/2 miles , 2.4 km
Cloud details: Mostly Cloudy 2200 ft
Overcast 3000 ft
2022/01/23 15:54 KDSV 231554Z AUTO 00000KT 1 1/2SM -SN BKN022 OVC030 M03/M07 A2980 RMK AO2 SLP108 P0000 T10331067 $
 
KIDI - Indiana/Stewart, Pennsylvania, USA
Distance from station: SSW 81mi, 130km
Updated: Sun, 23-Jan-2022 10:55am EST
Haze, Mostly cloudy
Haze, Mostly cloudy
 Wind from W
Wind: W 12 mph , 19 km/h
Temperature: 25°F , -4°C
Wind Chill: 14°F , -10°C
Dew Point: 21°F , -6°C
Humidity: 86%
Barometer: 29.85 inHg , 1010.8 hPa
Summary: Haze
Clouds: Mostly Cloudy
Visibility: 2 miles , 3 km
Cloud details: Few Clouds 2500 ft
Partly Cloudy 3300 ft
Mostly Cloudy 4900 ft
2022/01/23 15:55 KIDI 231555Z AUTO 26010KT 2SM HZ FEW025 SCT033 BKN049 M04/M06 A2985 RMK A01
KBUF - Buffalo/Cheektow, New York, USA
Distance from station: N 84mi, 136km
Updated: Sun, 23-Jan-2022 10:54am EST
Light snow, Mist, Overcast
Light snow, Mist, Overcast
 Wind from WSW
Wind: WSW 3 mph , 6 km/h
Temperature: 23°F , -5°C
Dew Point: 19°F , -7°C
Humidity: 86%
Barometer: 29.81 inHg , 1009.5 hPa
Summary: Light snow, Mist
Clouds: Overcast
Visibility: 3/4 mile , 1.2 km
Cloud details: Overcast 1200 ft
2022/01/23 15:54 KBUF 231554Z 24003KT 3/4SM R23/3500V5500FT -SN BR VV012 M05/M07 A2981 RMK AO2 TWR VIS 1 SLP106 P0001 T10501072 $
 
KGKJ - Meadville, Pennsylvania, USA
Distance from station: W 86mi, 138km
Updated: Sun, 23-Jan-2022 10:53am EST
Snow, Freezing, Fog, Overcast
Snow, Freezing, Fog, Overcast
 Wind from SSW
Wind: SSW 9 mph , 15 km/h
Temperature: 21°F , -6°C
Wind Chill: 11°F , -12°C
Dew Point: 18°F , -8°C
Humidity: 86%
Barometer: 29.77 inHg , 1008.1 hPa
Summary: Snow, Freezing, Fog
Clouds: Overcast
Visibility: 1/2 mile , 0.8 km
Cloud details: Overcast 1300 ft
2022/01/23 15:53 KGKJ 231553Z AUTO 20008KT 1/2SM SN FZFG VV013 M06/M08 A2977 RMK AO2 SLP101 P0001 T10611078
KERI - Erie, Pennsylvania, USA
Distance from station: WNW 87mi, 140km
Updated: Sun, 23-Jan-2022 10:51am EST
Light snow, Overcast
Light snow, Overcast
 Wind from S
Wind: S 10 mph , 17 km/h
Temperature: 25°F , -4°C
Wind Chill: 15°F , -9°C
Dew Point: 19°F , -7°C
Humidity: 80%
Barometer: 29.81 inHg , 1009.5 hPa
Summary: Light Snow
Clouds: Overcast
Visibility: 1 1/4 miles , 2 km
Cloud details: Mostly Cloudy 2400 ft
Overcast 3100 ft
2022/01/23 15:51 KERI 231551Z 19009KT 1 1/4SM -SN BKN024 OVC031 M04/M07 A2981 RMK AO2 SLP103 P0001 T10391072
 
KELM - Elmira, New York, USA
Distance from station: ENE 90mi, 145km
Updated: Sun, 23-Jan-2022 10:53am EST
Overcast
Overcast
 Wind from SSW
Wind: SSW 10 mph , 17 km/h
Temperature: 25°F , -4°C
Wind Chill: 15°F , -9°C
Dew Point: 14°F , -10°C
Humidity: 63%
Barometer: 29.80 inHg , 1009.1 hPa
Clouds: Overcast
Visibility: 10 miles , 16 km
Cloud details: Overcast 6500 ft
2022/01/23 15:53 KELM 231553Z 21009KT 10SM OVC065 M04/M10 A2980 RMK AO2 SLP105 T10391100
KIPT - Williamsport, Pennsylvania, USA
Distance from station: ESE 91mi, 146km
Updated: Sun, 23-Jan-2022 10:54am EST
Clear
Clear
 Wind from calm
Wind: Calm
Temperature: 19°F , -7°C
Dew Point: 9°F , -13°C
Humidity: 63%
Barometer: 29.88 inHg , 1011.9 hPa
Clouds: Clear
Visibility: 10 miles , 16 km
2022/01/23 15:54 KIPT 231554Z 00000KT 10SM CLR M07/M13 A2988 RMK AO2 SLP127 T10671128
 
KBTP - Butler Co., Pennsylvania, USA
Distance from station: SW 98mi, 157km
Updated: Sun, 23-Jan-2022 10:56am EST
Light snow, Mist, Overcast
Light snow, Mist, Overcast
 Wind from S
Wind: S 6 mph , 9 km/h
Temperature: 25°F , -4°C
Wind Chill: 18°F , -8°C
Dew Point: 19°F , -7°C
Humidity: 80%
Barometer: 29.82 inHg , 1009.8 hPa
Summary: Light snow, Mist
Clouds: Overcast
Visibility: 3/4 mile , 1.2 km
Cloud details: Overcast 1300 ft
2022/01/23 15:56 KBTP 231556Z AUTO 18005KT 3/4SM -SN BR OVC013 M04/M07 A2982 RMK AO2 SLP120 P0001
KAOO - Altoona, Pennsylvania, USA
Distance from station: S 99mi, 159km
Updated: Sun, 23-Jan-2022 10:53am EST
Clear
Clear
 Wind from WSW
Wind: WSW 15 mph , 24 km/h
Temperature: 28°F , -2°C
Wind Chill: 16°F , -9°C
Dew Point: 16°F , -9°C
Humidity: 59%
Barometer: 29.82 inHg , 1009.8 hPa
Clouds: Clear
Visibility: 10 miles , 16 km
2022/01/23 15:53 KAOO 231553Z AUTO 25013KT 10SM CLR M02/M09 A2982 RMK AO2 SLP115 T10171089
 
KPIT - Pittsburg, Pennsylvania, USA
Distance from station: SSW 126mi, 203km
Updated: Sun, 23-Jan-2022 10:51am EST
Light snow, Mist, Overcast
Light snow, Mist, Overcast
 Wind from S
Wind: S 9 mph , 15 km/h
Temperature: 23°F , -5°C
Wind Chill: 13°F , -11°C
Dew Point: 19°F , -7°C
Humidity: 86%
Barometer: 29.82 inHg , 1009.8 hPa
Summary: Light snow, Mist
Clouds: Overcast
Visibility: 1 mile , 2 km
Cloud details: Mostly Cloudy 1500 ft
Overcast 2400 ft
2022/01/23 15:51 KPIT 231551Z 18008KT 1SM R28R/3500V5500FT -SN BR BKN015 OVC024 M05/M07 A2982 RMK AO2 SLP123 P0000 T10501072
KCLE - Cleveland, Ohio, USA
Distance from station: WSW 160mi, 258km
Updated: Sun, 23-Jan-2022 10:51am EST
Light snow, Freezing, Fog, Overcast
Light snow, Freezing, Fog, Overcast
 Wind from SSE
Wind: SSE 7 mph , 11 km/h
Temperature: 25°F , -4°C
Wind Chill: 17°F , -8°C
Dew Point: 21°F , -6°C
Humidity: 86%
Barometer: 29.77 inHg , 1008.1 hPa
Summary: Light snow, Freezing, Fog
Clouds: Overcast
Visibility: 1/2 mile , 0.8 km
Cloud details: Overcast 1400 ft
2022/01/23 15:51 KCLE 231551Z 16006KT 1/2SM -SN FZFG VV014 M04/M06 A2977 RMK AO2 SLP109 SNINCR 1/9 P0005 T10391061